createdAt,value
2018-12-02T00:00:24.731Z,54.13
2018-12-02T00:02:53.593Z,50.10
2018-12-02T00:05:21.927Z,45.73
2018-12-02T00:07:50.395Z,51.27
2018-12-02T00:10:19.511Z,44.43
2018-12-02T00:12:47.885Z,41.67
2018-12-02T00:15:20.532Z,53.13
2018-12-02T00:17:49.633Z,41.90
2018-12-02T00:20:18.043Z,45.47
2018-12-02T00:22:46.521Z,51.43
2018-12-02T00:25:15.597Z,52.23
2018-12-02T00:27:49.167Z,55.20
2018-12-02T00:30:20.769Z,43.90
2018-12-02T00:32:49.168Z,54.57
2018-12-02T00:35:18.750Z,52.50
2018-12-02T00:37:49.145Z,45.30
2018-12-02T00:40:19.749Z,52.73
2018-12-02T00:42:49.238Z,54.67
2018-12-02T00:45:18.887Z,56.50
2018-12-02T00:47:47.867Z,57.27
2018-12-02T00:50:17.974Z,57.70
2018-12-02T00:52:49.581Z,55.10
2018-12-02T00:55:21.904Z,58.03
2018-12-02T00:57:50.736Z,55.87
2018-12-02T01:00:19.115Z,55.23
2018-12-02T01:02:48.538Z,59.23
2018-12-02T01:05:19.030Z,55.23
2018-12-02T01:07:47.359Z,58.60
2018-12-02T01:10:17.496Z,53.53
2018-12-02T01:12:46.842Z,63.87
2018-12-02T01:15:16.249Z,64.67
2018-12-02T01:17:44.575Z,66.33
2018-12-02T01:20:15.859Z,62.93
2018-12-02T01:22:44.333Z,52.43
2018-12-02T01:25:13.296Z,55.00
2018-12-02T01:27:42.238Z,60.87
2018-12-02T01:30:22.377Z,56.00
2018-12-02T01:32:51.987Z,53.27
2018-12-02T01:35:20.501Z,65.63
2018-12-02T01:37:48.884Z,62.93
2018-12-02T01:40:18.658Z,61.13
2018-12-02T01:42:47.157Z,63.83
2018-12-02T01:45:18.429Z,61.60
2018-12-02T01:47:47.154Z,64.90
2018-12-02T01:50:16.407Z,58.03
2018-12-02T01:52:46.072Z,52.67
2018-12-02T01:55:14.561Z,65.13
2018-12-02T01:57:43.138Z,55.17
2018-12-02T02:00:16.692Z,62.33
2018-12-02T02:02:45.132Z,63.47
2018-12-02T02:05:13.881Z,68.63
2018-12-02T02:07:43.071Z,67.27
2018-12-02T02:10:13.722Z,61.67
2018-12-02T02:12:42.054Z,75.20
2018-12-02T02:15:12.071Z,67.53
2018-12-02T02:17:40.500Z,59.80
2018-12-02T02:20:10.717Z,63.57
2018-12-02T02:22:39.374Z,55.70
2018-12-02T02:25:09.850Z,58.63
2018-12-02T02:27:38.562Z,68.30
2018-12-02T02:30:10.778Z,52.53
2018-12-02T02:32:39.186Z,61.47
2018-12-02T02:35:07.889Z,52.93
2018-12-02T02:37:36.682Z,56.63
2018-12-02T02:40:14.724Z,55.50
2018-12-02T02:42:43.684Z,61.40
2018-12-02T02:45:12.927Z,63.87
2018-12-02T02:47:41.369Z,57.13
2018-12-02T02:50:13.625Z,55.30
2018-12-02T02:52:42.995Z,73.47
2018-12-02T02:55:11.379Z,72.63
2018-12-02T02:57:40.103Z,67.13
2018-12-02T03:00:11.382Z,64.47
2018-12-02T03:02:39.861Z,63.73
2018-12-02T03:05:09.261Z,68.97
2018-12-02T03:07:37.730Z,59.30
2018-12-02T03:10:09.601Z,65.90
2018-12-02T03:12:38.135Z,58.93
2018-12-02T03:15:08.266Z,68.50
2018-12-02T03:17:36.640Z,61.00
2018-12-02T03:20:07.390Z,59.87
2018-12-02T03:22:35.839Z,56.23
2018-12-02T03:25:04.879Z,65.67
2018-12-02T03:27:33.274Z,71.90
2018-12-02T03:30:01.602Z,58.50
2018-12-02T03:32:30.017Z,54.10
2018-12-02T03:34:58.531Z,63.50
2018-12-02T03:37:26.901Z,58.50
2018-12-02T03:39:55.268Z,54.43
2018-12-02T03:42:23.826Z,52.93
2018-12-02T03:44:52.142Z,55.20
2018-12-02T03:47:20.767Z,57.57
2018-12-02T03:49:49.259Z,58.13
2018-12-02T03:52:17.568Z,55.20
2018-12-02T03:54:45.942Z,48.13
2018-12-02T03:57:14.487Z,51.80
2018-12-02T03:59:42.812Z,52.17
2018-12-02T04:02:11.150Z,53.73
2018-12-02T04:04:40.462Z,52.60
2018-12-02T04:07:08.904Z,45.73
2018-12-02T04:09:37.223Z,45.27
2018-12-02T04:12:06.051Z,56.07
2018-12-02T04:14:34.455Z,46.90
2018-12-02T04:17:02.962Z,49.67
2018-12-02T04:19:31.580Z,47.13
2018-12-02T04:21:59.889Z,54.87
2018-12-02T04:24:28.218Z,44.77
2018-12-02T04:26:56.787Z,39.10
2018-12-02T04:29:25.127Z,32.20
2018-12-02T04:31:53.457Z,44.53
2018-12-02T04:34:21.964Z,45.90
2018-12-02T04:36:50.303Z,46.43
2018-12-02T04:39:18.647Z,43.33
2018-12-02T04:41:47.352Z,36.87
2018-12-02T04:44:15.695Z,43.20
2018-12-02T04:46:44.018Z,44.70
2018-12-02T04:49:12.547Z,47.20
2018-12-02T04:51:40.865Z,43.47
2018-12-02T04:54:09.239Z,43.03
2018-12-02T04:56:38.106Z,41.13
2018-12-02T04:59:06.513Z,42.17
2018-12-02T05:01:34.843Z,40.80
2018-12-02T05:04:03.280Z,44.83
2018-12-02T05:06:31.620Z,44.37
2018-12-02T05:09:00.041Z,47.40
2018-12-02T05:11:28.499Z,41.63
2018-12-02T05:13:56.826Z,42.13
2018-12-02T05:16:25.220Z,43.60
2018-12-02T05:18:53.939Z,50.73
2018-12-02T05:21:22.279Z,45.50
2018-12-02T05:23:50.654Z,44.90
2018-12-02T05:26:19.238Z,47.70
2018-12-02T05:28:47.629Z,45.03
2018-12-02T05:31:16.133Z,59.33
2018-12-02T05:33:44.573Z,50.70
2018-12-02T05:36:13.224Z,46.87
2018-12-02T05:38:41.815Z,49.00
2018-12-02T05:41:10.569Z,52.73
2018-12-02T05:43:38.915Z,56.00
2018-12-02T05:46:07.223Z,45.57
2018-12-02T05:48:35.933Z,51.77
2018-12-02T05:51:04.691Z,45.13
2018-12-02T05:53:32.999Z,44.90
2018-12-02T05:56:01.440Z,49.23
2018-12-02T05:58:29.811Z,47.37
2018-12-02T06:00:58.462Z,42.70
2018-12-02T06:03:27.032Z,49.47
2018-12-02T06:05:55.391Z,44.20
2018-12-02T06:08:23.773Z,43.30
2018-12-02T06:10:52.538Z,40.77
2018-12-02T06:13:20.957Z,44.03
2018-12-02T06:15:49.262Z,37.43
2018-12-02T06:18:17.717Z,36.77
2018-12-02T06:20:46.054Z,43.63
2018-12-02T06:23:14.428Z,44.10
2018-12-02T06:25:46.459Z,39.87
2018-12-02T06:28:11.467Z,40.10
2018-12-02T06:30:39.916Z,45.80
2018-12-02T06:33:08.648Z,35.70
2018-12-02T06:35:36.959Z,38.47
2018-12-02T06:38:06.533Z,41.43
2018-12-02T06:40:35.063Z,34.53
2018-12-02T06:43:03.414Z,36.37
2018-12-02T06:45:31.833Z,38.50
2018-12-02T06:48:00.754Z,38.43
2018-12-02T06:50:29.074Z,32.87
2018-12-02T06:52:57.690Z,41.63
2018-12-02T06:55:33.112Z,40.00
2018-12-02T06:58:14.723Z,35.10
2018-12-02T07:00:52.917Z,34.37
2018-12-02T07:03:48.344Z,43.97
2018-12-02T07:06:17.268Z,43.37
2018-12-02T07:08:45.566Z,56.40
2018-12-02T07:11:13.944Z,51.90
2018-12-02T07:13:42.436Z,39.70
2018-12-02T07:16:10.751Z,43.27
2018-12-02T07:18:41.152Z,35.37
2018-12-02T07:21:14.638Z,38.77
2018-12-02T07:23:43.953Z,39.60
2018-12-02T07:26:13.398Z,35.70
2018-12-02T07:28:42.388Z,40.13
2018-12-02T07:31:10.859Z,46.00
2018-12-02T07:33:39.151Z,34.07
2018-12-02T07:36:08.606Z,34.73
2018-12-02T07:38:47.633Z,32.10
2018-12-02T07:41:16.267Z,33.33
2018-12-02T07:43:44.650Z,34.80
2018-12-02T07:46:12.957Z,32.40
2018-12-02T07:48:41.533Z,33.10
2018-12-02T07:51:09.885Z,32.27
2018-12-02T07:53:38.222Z,24.17
2018-12-02T07:56:06.982Z,36.53
2018-12-02T07:58:35.346Z,36.80
2018-12-02T08:01:03.821Z,35.77
2018-12-02T08:03:32.752Z,35.57
2018-12-02T08:06:01.176Z,33.70
2018-12-02T08:08:29.461Z,36.37
2018-12-02T08:10:58.006Z,36.97
2018-12-02T08:13:26.710Z,39.37
2018-12-02T08:15:55.041Z,35.37
2018-12-02T08:18:23.506Z,33.33
2018-12-02T08:20:51.882Z,35.50
2018-12-02T08:23:20.268Z,37.97
2018-12-02T08:25:48.978Z,41.47
2018-12-02T08:28:17.571Z,37.10
2018-12-02T08:30:45.890Z,38.73
2018-12-02T08:33:14.632Z,33.90
2018-12-02T08:35:43.010Z,32.53
2018-12-02T08:38:11.707Z,29.27
2018-12-02T08:40:40.381Z,37.37
2018-12-02T08:43:09.191Z,28.90
2018-12-02T08:45:38.141Z,35.50
2018-12-02T08:48:06.284Z,29.37
2018-12-02T08:50:34.651Z,26.37
2018-12-02T08:53:02.980Z,32.90
2018-12-02T08:55:31.442Z,34.60
2018-12-02T08:57:59.805Z,30.17
2018-12-02T09:00:28.294Z,20.50
2018-12-02T09:02:57.995Z,21.63
2018-12-02T09:05:26.371Z,24.10
2018-12-02T09:07:56.029Z,29.67
2018-12-02T09:10:27.575Z,25.47
2018-12-02T09:13:02.306Z,25.93
2018-12-02T09:15:30.885Z,14.67
2018-12-02T09:17:59.204Z,19.23
2018-12-02T09:20:33.982Z,24.90
2018-12-02T09:23:02.492Z,21.17
2018-12-02T09:25:30.856Z,21.53
2018-12-02T09:27:59.381Z,20.57
2018-12-02T09:30:28.825Z,17.67
2018-12-02T09:32:57.196Z,16.80
2018-12-02T09:35:25.680Z,20.33
2018-12-02T09:37:54.073Z,22.23
2018-12-02T09:40:22.378Z,19.70
2018-12-02T09:42:51.869Z,27.30
2018-12-02T09:45:22.285Z,22.07
2018-12-02T09:47:50.607Z,24.40
2018-12-02T09:50:19.084Z,17.53
2018-12-02T09:52:47.459Z,22.53
2018-12-02T09:55:48.000Z,20.23
2018-12-02T09:58:24.340Z,19.77
2018-12-02T10:00:53.133Z,13.20
2018-12-02T10:03:21.533Z,20.10
2018-12-02T10:05:49.964Z,16.23
2018-12-02T10:08:18.886Z,17.90
2018-12-02T10:10:47.188Z,20.90
2018-12-02T10:13:17.560Z,26.97
2018-12-02T10:15:46.077Z,19.70
2018-12-02T10:18:14.637Z,20.77
2018-12-02T10:20:42.966Z,15.50
2018-12-02T10:23:11.755Z,25.10
2018-12-02T10:25:40.403Z,17.77
2018-12-02T10:28:09.734Z,23.57
2018-12-02T10:30:39.514Z,23.90
2018-12-02T10:33:08.076Z,24.37
2018-12-02T10:35:36.452Z,23.30
2018-12-02T10:38:05.816Z,20.33
2018-12-02T10:40:34.276Z,19.83
2018-12-02T10:43:02.646Z,19.53
2018-12-02T10:45:31.437Z,20.73
2018-12-02T10:48:00.732Z,22.00
2018-12-02T10:50:32.583Z,20.43
2018-12-02T10:53:02.243Z,19.33
2018-12-02T10:55:34.128Z,19.57
2018-12-02T10:58:02.491Z,21.47
2018-12-02T11:00:36.457Z,26.00
2018-12-02T11:03:04.953Z,24.87
2018-12-02T11:05:33.268Z,24.53
2018-12-02T11:08:01.903Z,28.43
2018-12-02T11:10:30.295Z,27.43
2018-12-02T11:12:58.606Z,27.53
2018-12-02T11:15:27.200Z,36.90
2018-12-02T11:17:55.613Z,29.33
2018-12-02T11:20:23.948Z,35.87
2018-12-02T11:22:52.378Z,34.77
2018-12-02T11:25:21.039Z,31.10
2018-12-02T11:27:49.501Z,28.40
2018-12-02T11:30:18.275Z,34.33
2018-12-02T11:32:47.571Z,32.43
2018-12-02T11:35:18.049Z,40.67
2018-12-02T11:37:47.085Z,37.20
2018-12-02T11:40:16.633Z,41.33
2018-12-02T11:42:44.988Z,34.93
2018-12-02T11:45:14.319Z,36.43
2018-12-02T11:47:43.831Z,52.67
2018-12-02T11:50:19.375Z,46.67
2018-12-02T11:52:47.830Z,35.83
2018-12-02T11:55:18.205Z,39.17
2018-12-02T11:57:46.742Z,41.23
2018-12-02T12:00:22.076Z,38.37
2018-12-02T12:02:50.951Z,44.60
2018-12-02T12:05:19.349Z,41.77
2018-12-02T12:07:48.744Z,44.70
2018-12-02T12:10:18.032Z,47.37
2018-12-02T12:12:47.284Z,55.13
2018-12-02T12:15:16.501Z,55.87
2018-12-02T12:17:45.037Z,60.77
2018-12-02T12:20:30.452Z,57.47
2018-12-02T12:22:58.830Z,41.17
2018-12-02T12:25:27.446Z,45.77
2018-12-02T12:27:56.739Z,40.57
2018-12-02T12:30:26.307Z,50.63
2018-12-02T12:32:54.951Z,53.33
2018-12-02T12:35:23.877Z,56.97
2018-12-02T12:37:52.339Z,50.07
2018-12-02T12:40:26.852Z,42.53
2018-12-02T12:43:11.732Z,52.13
2018-12-02T12:45:40.080Z,50.33
2018-12-02T12:48:08.444Z,58.80
2018-12-02T12:50:36.871Z,60.57
2018-12-02T12:53:05.648Z,59.90
2018-12-02T12:55:33.974Z,66.63
2018-12-02T12:58:03.388Z,60.17
2018-12-02T13:00:31.826Z,62.10
2018-12-02T13:03:00.548Z,64.00
2018-12-02T13:05:29.197Z,61.60
2018-12-02T13:07:57.564Z,68.00
2018-12-02T13:10:25.903Z,47.07
2018-12-02T13:12:54.277Z,61.23
2018-12-02T13:15:23.475Z,75.03
2018-12-02T13:18:01.653Z,59.60
2018-12-02T13:20:33.541Z,51.83
2018-12-02T13:23:01.900Z,55.50
2018-12-02T13:25:30.235Z,82.27
2018-12-02T13:27:58.540Z,75.20
2018-12-02T13:30:26.896Z,69.77
2018-12-02T13:32:55.583Z,78.00
2018-12-02T13:35:24.406Z,82.50
2018-12-02T13:37:52.850Z,82.77
2018-12-02T13:40:21.974Z,76.00
2018-12-02T13:42:52.733Z,76.77
2018-12-02T13:45:22.343Z,81.53
2018-12-02T13:47:50.650Z,79.13
2018-12-02T13:50:19.660Z,79.23
2018-12-02T13:52:49.230Z,67.87
2018-12-02T13:55:18.568Z,72.83
2018-12-02T13:57:47.483Z,90.37
2018-12-02T14:00:17.932Z,67.37
2018-12-02T14:02:47.565Z,82.70
2018-12-02T14:05:16.091Z,86.13
2018-12-02T14:07:44.574Z,66.17
2018-12-02T14:10:13.967Z,73.97
2018-12-02T14:12:44.118Z,92.50
2018-12-02T14:15:21.040Z,92.53
2018-12-02T14:17:51.030Z,100.57
2018-12-02T14:20:19.362Z,107.97
2018-12-02T14:22:47.788Z,75.43
2018-12-02T14:25:16.188Z,99.87
2018-12-02T14:27:46.257Z,85.30
2018-12-02T14:30:16.466Z,92.83
2018-12-02T14:32:44.812Z,86.37
2018-12-02T14:35:13.205Z,100.73
2018-12-02T14:37:41.743Z,104.90
2018-12-02T14:40:12.177Z,114.67
2018-12-02T14:42:41.791Z,93.77
2018-12-02T14:45:11.857Z,96.20
2018-12-02T14:47:40.221Z,87.80
2018-12-02T14:50:12.207Z,100.83
2018-12-02T14:52:40.705Z,114.60
2018-12-02T14:55:10.730Z,106.67
2018-12-02T14:57:39.093Z,124.97
2018-12-02T15:00:17.392Z,75.97
2018-12-02T15:02:45.737Z,118.00
2018-12-02T15:05:14.607Z,104.33
2018-12-02T15:07:44.394Z,117.77
2018-12-02T15:10:16.750Z,119.60
2018-12-02T15:12:46.062Z,113.13
2018-12-02T15:15:16.457Z,109.03
2018-12-02T15:17:45.743Z,116.70
2018-12-02T15:20:16.412Z,96.90
2018-12-02T15:22:44.851Z,106.93
2018-12-02T15:25:14.110Z,98.00
2018-12-02T15:27:43.176Z,74.03
2018-12-02T15:30:13.569Z,64.10
2018-12-02T15:32:42.928Z,73.50
2018-12-02T15:35:11.652Z,76.97
2018-12-02T15:37:40.132Z,61.63
2018-12-02T15:40:17.281Z,50.17
2018-12-02T15:42:50.245Z,81.77
2018-12-02T15:45:19.096Z,55.17
2018-12-02T15:47:47.489Z,67.07
2018-12-02T15:50:17.928Z,67.80
2018-12-02T15:52:46.813Z,72.93
2018-12-02T15:55:25.210Z,69.83
2018-12-02T15:57:53.707Z,33.83
2018-12-02T16:00:23.518Z,61.40
2018-12-02T16:02:51.982Z,67.70
2018-12-02T16:05:20.326Z,52.50
2018-12-02T16:07:48.876Z,43.63
2018-12-02T16:10:17.284Z,44.17
2018-12-02T16:12:47.656Z,42.17
2018-12-02T16:15:31.997Z,49.87
2018-12-02T16:18:00.403Z,47.67
2018-12-02T16:20:33.584Z,48.50
2018-12-02T16:23:01.972Z,35.73
2018-12-02T16:25:30.325Z,42.53
2018-12-02T16:27:58.644Z,38.83
2018-12-02T16:30:26.948Z,49.33
2018-12-02T16:32:55.361Z,35.23
2018-12-02T16:35:25.059Z,28.40
2018-12-02T16:37:54.512Z,22.33
2018-12-02T16:40:23.886Z,40.70
2018-12-02T16:42:53.395Z,35.47
2018-12-02T16:45:21.838Z,47.70
2018-12-02T16:47:54.318Z,41.50
2018-12-02T16:50:33.562Z,48.53
2018-12-02T16:53:07.421Z,51.57
2018-12-02T16:55:38.043Z,49.63
2018-12-02T16:58:11.861Z,41.37
2018-12-02T17:00:45.212Z,42.93
2018-12-02T17:03:13.594Z,53.50
2018-12-02T17:05:41.960Z,42.57
2018-12-02T17:08:10.652Z,41.97
2018-12-02T17:10:39.079Z,46.87
2018-12-02T17:13:07.522Z,30.30
2018-12-02T17:15:35.925Z,36.57
2018-12-02T17:18:04.324Z,35.27
2018-12-02T17:20:32.749Z,38.50
2018-12-02T17:23:01.046Z,45.10
2018-12-02T17:25:29.372Z,52.57
2018-12-02T17:27:57.982Z,44.80
2018-12-02T17:31:01.159Z,35.97
2018-12-02T17:33:29.573Z,43.17
2018-12-02T17:35:57.986Z,41.87
2018-12-02T17:38:26.777Z,52.43
2018-12-02T17:40:56.533Z,43.57
2018-12-02T17:43:24.971Z,46.73
2018-12-02T17:45:53.491Z,44.10
2018-12-02T17:48:21.945Z,41.13
2018-12-02T17:50:50.321Z,36.53
2018-12-02T17:53:18.932Z,42.30
2018-12-02T17:55:47.353Z,40.60
2018-12-02T17:58:15.851Z,42.30
2018-12-02T18:00:44.382Z,51.47
2018-12-02T18:03:15.717Z,42.83
2018-12-02T18:05:45.404Z,43.47
2018-12-02T18:08:13.974Z,43.97
2018-12-02T18:10:42.453Z,36.87
2018-12-02T18:13:10.983Z,50.80
2018-12-02T18:15:39.512Z,53.50
2018-12-02T18:18:08.401Z,54.70
2018-12-02T18:20:36.794Z,47.33
2018-12-02T18:23:05.292Z,44.57
2018-12-02T18:25:33.770Z,46.73
2018-12-02T18:28:02.115Z,47.13
2018-12-02T18:30:30.570Z,43.53
2018-12-02T18:33:00.179Z,41.93
2018-12-02T18:35:41.110Z,46.80
2018-12-02T18:38:15.071Z,48.47
2018-12-02T18:40:46.786Z,46.77
2018-12-02T18:43:15.316Z,50.33
2018-12-02T18:45:43.644Z,44.83
2018-12-02T18:48:12.294Z,46.53
2018-12-02T18:50:40.670Z,66.03
2018-12-02T18:53:09.111Z,55.17
2018-12-02T18:55:37.516Z,45.00
2018-12-02T18:58:06.287Z,53.53
2018-12-02T19:00:40.014Z,54.13
2018-12-02T19:03:08.368Z,51.93
2018-12-02T19:05:36.686Z,55.00
2018-12-02T19:08:05.435Z,54.83
2018-12-02T19:10:34.267Z,51.10
2018-12-02T19:13:02.667Z,47.27
2018-12-02T19:15:31.064Z,51.37
2018-12-02T19:17:59.449Z,55.70
2018-12-02T19:20:28.991Z,52.87
2018-12-02T19:23:00.009Z,54.77
2018-12-02T19:25:29.756Z,55.67
2018-12-02T19:27:58.133Z,46.03
2018-12-02T19:30:26.499Z,55.40
2018-12-02T19:32:55.133Z,52.53
2018-12-02T19:35:29.879Z,51.67
2018-12-02T19:38:02.703Z,50.10
2018-12-02T19:40:31.675Z,56.40
2018-12-02T19:42:59.965Z,46.60
2018-12-02T19:45:28.432Z,40.30
2018-12-02T19:47:56.793Z,32.30
2018-12-02T19:50:25.179Z,37.07
2018-12-02T19:52:54.309Z,41.90
2018-12-02T19:55:22.675Z,44.60
2018-12-02T19:57:51.119Z,58.03
2018-12-02T20:00:26.273Z,42.77
2018-12-02T20:02:55.073Z,39.13
2018-12-02T20:05:23.442Z,58.77
2018-12-02T20:07:57.323Z,56.47
2018-12-02T20:10:29.410Z,43.07
2018-12-02T20:13:01.596Z,37.33
2018-12-02T20:15:30.001Z,41.20
2018-12-02T20:17:58.347Z,69.43
2018-12-02T20:20:32.153Z,46.93
2018-12-02T20:23:00.497Z,57.53
2018-12-02T20:25:28.825Z,55.33
2018-12-02T20:27:59.263Z,64.70
2018-12-02T20:30:27.758Z,73.43
2018-12-02T20:32:56.156Z,68.43
2018-12-02T20:35:24.483Z,77.00
2018-12-02T20:37:52.807Z,70.03
2018-12-02T20:40:22.519Z,79.97
2018-12-02T20:42:51.308Z,68.93
2018-12-02T20:45:19.682Z,83.23
2018-12-02T20:47:48.083Z,75.90
2018-12-02T20:50:18.145Z,76.07
2018-12-02T20:52:47.177Z,85.90
2018-12-02T20:55:20.656Z,89.13
2018-12-02T20:57:49.646Z,66.37
2018-12-02T21:00:18.888Z,64.97
2018-12-02T21:02:51.685Z,86.53
2018-12-02T21:05:26.911Z,66.53
2018-12-02T21:07:55.307Z,93.07
2018-12-02T21:10:23.635Z,76.10
2018-12-02T21:12:52.194Z,84.77
2018-12-02T21:15:20.627Z,89.47
2018-12-02T21:17:48.974Z,79.97
2018-12-02T21:20:17.293Z,88.43
2018-12-02T21:22:45.663Z,77.30
2018-12-02T21:25:18.317Z,88.53
2018-12-02T21:27:46.706Z,82.87
2018-12-02T21:30:17.447Z,94.10
2018-12-02T21:32:45.877Z,92.43
2018-12-02T21:35:14.246Z,72.80
2018-12-02T21:37:42.672Z,93.17
2018-12-02T21:40:12.219Z,86.47
2018-12-02T21:42:40.601Z,83.77
2018-12-02T21:45:10.069Z,97.27
2018-12-02T21:47:39.082Z,85.07
2018-12-02T21:50:10.803Z,72.00
2018-12-02T21:52:39.199Z,80.60
2018-12-02T21:55:08.157Z,75.93
2018-12-02T21:57:36.913Z,81.43
2018-12-02T22:00:19.287Z,91.57
2018-12-02T22:02:47.811Z,90.63
2018-12-02T22:05:16.157Z,78.60
2018-12-02T22:07:44.534Z,79.23
2018-12-02T22:10:18.016Z,90.80
2018-12-02T22:12:46.344Z,93.40
2018-12-02T22:15:15.141Z,46.47
2018-12-02T22:17:43.474Z,82.60
2018-12-02T22:20:15.811Z,64.10
2018-12-02T22:22:44.270Z,95.00
2018-12-02T22:25:14.594Z,82.93
2018-12-02T22:27:44.020Z,88.80
2018-12-02T22:30:16.479Z,81.43
2018-12-02T22:32:45.001Z,83.37
2018-12-02T22:35:14.176Z,77.70
2018-12-02T22:37:42.849Z,89.00
2018-12-02T22:40:24.007Z,91.47
2018-12-02T22:42:53.550Z,86.60
2018-12-02T22:45:23.905Z,75.63
2018-12-02T22:47:52.253Z,83.63
2018-12-02T22:50:21.642Z,49.67
2018-12-02T22:52:51.140Z,96.00
2018-12-02T22:55:19.616Z,96.53
2018-12-02T22:57:47.905Z,93.30
2018-12-02T23:02:30.464Z,106.23
2018-12-02T23:04:59.025Z,50.37
2018-12-02T23:07:27.345Z,91.33
2018-12-02T23:09:55.812Z,96.90
2018-12-02T23:12:24.153Z,90.53
2018-12-02T23:14:52.495Z,97.80
2018-12-02T23:17:22.208Z,99.40
2018-12-02T23:19:50.566Z,103.77
2018-12-02T23:22:18.882Z,88.10
2018-12-02T23:24:47.187Z,97.00
2018-12-02T23:27:15.699Z,97.17
2018-12-02T23:29:44.062Z,83.80
2018-12-02T23:32:12.364Z,83.30
2018-12-02T23:34:40.866Z,94.10
2018-12-02T23:37:09.189Z,92.40
2018-12-02T23:39:38.646Z,86.33
2018-12-02T23:42:05.954Z,100.10
2018-12-02T23:44:34.284Z,94.50
2018-12-02T23:47:02.695Z,100.63
2018-12-02T23:49:31.097Z,99.20
2018-12-02T23:51:59.394Z,99.93
2018-12-02T23:54:27.704Z,86.73
2018-12-02T23:56:56.072Z,86.90
2018-12-02T23:59:24.417Z,108.13
